Time;durP1;ratioP1;P1;durP2;ratioP2;P2;SDS_P1;SDS_P2;PMS_P1;PMS_P2;Temp;Humidity;BMP_temperature;BMP_pressure;BME280_temperature;BME280_humidity;BME280_pressure;Samples;Min_cycle;Max_cycle;Signal;HPM_P1;HPM_P2
2023/06/16 00:01:59;;;;;;;19.00;10.68;;;;;;;16.82;76.02;102113.38;6096204;19;20034;-72
2023/06/16 00:04:06;;;;;;;14.98;10.48;;;;;;;16.81;75.54;102108.16;6102290;19;20035;-72
2023/06/16 00:06:15;;;;;;;18.52;9.90;;;;;;;16.79;75.62;102110.03;6103169;19;20043;-72
2023/06/16 00:08:21;;;;;;;15.25;10.15;;;;;;;16.80;75.93;102117.94;6103510;19;20010;-74
2023/06/16 00:10:29;;;;;;;21.90;12.05;;;;;;;16.79;76.16;102112.69;6105285;19;20055;-72
2023/06/16 00:12:34;;;;;;;17.23;10.30;;;;;;;16.77;75.99;102111.84;6104616;19;20010;-74
2023/06/16 00:14:39;;;;;;;15.98;10.95;;;;;;;16.75;76.27;102108.44;6104261;19;20031;-74
2023/06/16 00:16:45;;;;;;;17.10;9.93;;;;;;;16.74;76.23;102117.31;6101472;19;20011;-74
2023/06/16 00:18:51;;;;;;;17.70;10.95;;;;;;;16.73;76.06;102107.63;6104388;19;20010;-73
2023/06/16 00:20:57;;;;;;;18.60;10.27;;;;;;;16.70;76.35;102108.63;6104811;19;20011;-75
2023/06/16 00:23:08;;;;;;;16.25;10.20;;;;;;;16.66;75.91;102107.03;6105003;19;20015;-73
2023/06/16 00:25:13;;;;;;;18.38;10.45;;;;;;;16.66;77.09;102113.19;6103901;19;20048;-75
2023/06/16 00:27:25;;;;;;;19.63;11.60;;;;;;;16.61;76.21;102106.38;6103810;19;20091;-75
2023/06/16 00:29:30;;;;;;;13.70;9.70;;;;;;;16.56;75.88;102103.97;6101124;19;20054;-73
2023/06/16 00:31:35;;;;;;;15.23;10.52;;;;;;;16.50;76.18;102104.22;6103575;19;20048;-74
2023/06/16 00:33:40;;;;;;;17.50;11.07;;;;;;;16.49;77.24;102105.16;6103421;19;20025;-73
2023/06/16 00:35:46;;;;;;;18.20;10.85;;;;;;;16.46;77.11;102114.13;6098965;19;20146;-73
2023/06/16 00:37:51;;;;;;;16.88;10.80;;;;;;;16.45;76.56;102100.91;6099499;19;20435;-75
2023/06/16 00:39:57;;;;;;;17.23;10.57;;;;;;;16.43;77.05;102102.78;6095677;19;20019;-72
2023/06/16 00:42:02;;;;;;;15.70;10.50;;;;;;;16.42;77.41;102101.06;6099146;19;20023;-73
2023/06/16 00:44:10;;;;;;;17.38;11.40;;;;;;;16.38;76.92;102110.09;6097896;19;20544;-73
2023/06/16 00:46:27;;;;;;;18.33;11.30;;;;;;;16.32;77.34;102110.34;6092405;19;20219;-73
2023/06/16 00:48:33;;;;;;;19.38;11.02;;;;;;;16.31;77.28;102111.28;6099219;19;20018;-73
2023/06/16 00:50:39;;;;;;;16.30;10.95;;;;;;;16.27;76.52;102102.59;6098773;19;20018;-73
2023/06/16 00:52:44;;;;;;;20.05;11.25;;;;;;;16.23;76.99;102103.66;6098053;19;20024;-74
2023/06/16 00:54:50;;;;;;;16.48;10.65;;;;;;;16.20;77.10;102111.75;6102879;19;20014;-73
2023/06/16 00:56:55;;;;;;;15.60;10.23;;;;;;;16.16;77.21;102111.00;6101639;19;20006;-75
2023/06/16 00:59:03;;;;;;;17.30;11.63;;;;;;;16.13;76.95;102099.69;6101377;19;20003;-72
2023/06/16 01:01:12;;;;;;;15.65;10.15;;;;;;;16.09;77.50;102093.66;6100914;19;20010;-74
2023/06/16 01:03:17;;;;;;;16.77;11.05;;;;;;;16.16;78.75;102102.22;6101073;19;20623;-73
2023/06/16 01:05:24;;;;;;;18.05;11.43;;;;;;;16.12;77.99;102100.63;6095898;19;20035;-73
2023/06/16 01:07:47;;;;;;;19.65;10.98;;;;;;;16.09;78.02;102101.63;6103368;19;20039;-73
2023/06/16 01:10:00;;;;;;;16.42;9.80;;;;;;;16.06;77.95;102099.13;6098423;19;20010;-74
2023/06/16 01:12:13;;;;;;;19.95;11.98;;;;;;;16.10;78.96;102099.84;6095979;19;20019;-73
2023/06/16 01:14:24;;;;;;;20.90;11.57;;;;;;;16.11;78.30;102101.53;6101210;19;20055;-73
2023/06/16 01:16:33;;;;;;;18.67;12.07;;;;;;;16.07;78.09;102092.88;6095494;19;20006;-74
2023/06/16 01:18:44;;;;;;;21.75;13.10;;;;;;;16.01;78.20;102088.69;6096600;19;20097;-75
2023/06/16 01:20:59;;;;;;;19.05;12.10;;;;;;;16.00;78.16;102088.75;6095074;19;20155;-69
2023/06/16 01:23:14;;;;;;;17.05;11.93;;;;;;;15.99;78.76;102087.91;6099601;19;20015;-69
2023/06/16 01:25:24;;;;;;;21.63;12.75;;;;;;;15.93;78.43;102093.47;6097586;19;19999;-69
2023/06/16 01:27:37;;;;;;;20.77;12.00;;;;;;;15.88;78.93;102092.81;6099208;19;20373;-69
2023/06/16 01:29:43;;;;;;;20.83;12.90;;;;;;;15.85;79.47;102095.59;6096416;19;20018;-70
2023/06/16 01:31:52;;;;;;;20.67;12.68;;;;;;;15.84;78.08;102093.84;6099632;19;20448;-69
2023/06/16 01:33:58;;;;;;;19.25;12.32;;;;;;;15.82;78.81;102092.19;6095370;19;20511;-69
2023/06/16 01:36:04;;;;;;;21.33;11.68;;;;;;;15.78;78.34;102092.31;6096683;19;20408;-69
2023/06/16 01:38:11;;;;;;;16.48;12.27;;;;;;;15.77;78.45;102084.44;6096947;19;20075;-69
2023/06/16 01:40:17;;;;;;;19.67;11.77;;;;;;;15.74;78.60;102088.06;6097346;19;20388;-69
2023/06/16 01:42:26;;;;;;;18.73;12.65;;;;;;;15.72;78.74;102089.94;6098145;19;20018;-69
2023/06/16 01:44:34;;;;;;;17.25;11.55;;;;;;;15.69;78.39;102090.09;6101194;19;20014;-68
2023/06/16 01:46:40;;;;;;;19.25;12.15;;;;;;;15.68;78.48;102085.66;6098903;19;20022;-69
2023/06/16 01:48:45;;;;;;;20.42;12.38;;;;;;;15.63;78.56;102082.34;6096349;19;20426;-69
2023/06/16 01:50:53;;;;;;;17.52;11.75;;;;;;;15.62;78.10;102085.06;6100340;19;20010;-68
2023/06/16 01:52:58;;;;;;;19.60;11.85;;;;;;;15.58;78.10;102082.53;6091296;19;20042;-68
2023/06/16 01:55:03;;;;;;;19.00;12.02;;;;;;;15.55;78.47;102079.16;6095440;19;20479;-69
2023/06/16 01:57:08;;;;;;;19.05;12.48;;;;;;;15.52;78.23;102085.44;6096996;19;20007;-68
2023/06/16 01:59:16;;;;;;;19.20;11.43;;;;;;;15.53;78.61;102084.53;6097186;19;20494;-69
2023/06/16 02:01:28;;;;;;;19.58;12.20;;;;;;;15.55;79.47;102081.78;6097275;19;20002;-68
2023/06/16 02:03:38;;;;;;;26.73;16.08;;;;;;;15.58;79.64;102086.97;6091762;19;20708;-68
2023/06/16 02:05:47;;;;;;;24.67;14.85;;;;;;;15.54;79.09;102083.59;6097634;19;20035;-69
2023/06/16 02:07:55;;;;;;;21.95;13.80;;;;;;;15.57;79.97;102077.31;6093182;19;20006;-69
2023/06/16 02:10:04;;;;;;;19.65;12.63;;;;;;;15.62;79.42;102085.06;6091757;19;20488;-69
2023/06/16 02:12:12;;;;;;;20.08;12.80;;;;;;;15.59;78.74;102084.25;6096230;19;20010;-68
2023/06/16 02:14:21;;;;;;;16.98;13.10;;;;;;;15.60;79.82;102082.47;6096255;19;20377;-68
2023/06/16 02:16:26;;;;;;;23.27;12.68;;;;;;;15.62;79.67;102083.28;6094749;19;20018;-69
2023/06/16 02:18:32;;;;;;;22.27;12.45;;;;;;;15.58;78.88;102077.22;6094214;19;20014;-69
2023/06/16 02:20:37;;;;;;;19.13;11.82;;;;;;;15.58;79.39;102076.38;6095242;19;20085;-68
2023/06/16 02:22:42;;;;;;;19.13;13.27;;;;;;;15.53;78.88;102081.00;6093652;19;20019;-74
2023/06/16 02:24:47;;;;;;;18.00;12.35;;;;;;;15.45;78.67;102080.44;6094099;19;20776;-75
2023/06/16 02:26:53;;;;;;;17.40;12.27;;;;;;;15.44;78.92;102082.25;6098262;19;20006;-74
2023/06/16 02:28:58;;;;;;;21.05;12.70;;;;;;;15.39;78.47;102078.91;6096663;19;20011;-73
2023/06/16 02:31:06;;;;;;;20.25;13.80;;;;;;;15.40;79.23;102079.78;6094760;19;20015;-73
2023/06/16 02:33:12;;;;;;;17.63;12.93;;;;;;;15.33;78.88;102081.81;6096547;19;20045;-73
2023/06/16 02:35:17;;;;;;;19.33;12.57;;;;;;;15.29;78.52;102083.72;6097562;19;20006;-74
2023/06/16 02:37:27;;;;;;;16.23;11.38;;;;;;;15.25;79.22;102081.28;6091366;19;20031;-73
2023/06/16 02:39:32;;;;;;;18.45;11.18;;;;;;;15.22;78.54;102095.50;6097893;19;20026;-73
2023/06/16 02:41:37;;;;;;;19.98;11.45;;;;;;;15.20;78.90;102091.19;6096635;19;20408;-76
2023/06/16 02:43:42;;;;;;;18.80;12.63;;;;;;;15.16;79.01;102090.44;6100613;19;20031;-73
2023/06/16 02:45:47;;;;;;;19.70;10.43;;;;;;;15.17;78.97;102086.88;6101531;19;20013;-74
2023/06/16 02:47:55;;;;;;;16.33;10.40;;;;;;;15.21;79.22;102087.59;6099557;19;19999;-74
2023/06/16 02:50:01;;;;;;;20.00;9.77;;;;;;;15.22;79.34;102090.22;6089371;19;20118;-69
2023/06/16 02:52:07;;;;;;;16.50;9.90;;;;;;;15.27;79.81;102082.94;6098254;19;20949;-69
2023/06/16 02:54:12;;;;;;;13.63;9.40;;;;;;;15.30;79.57;102088.09;6096430;19;20444;-68
2023/06/16 02:56:17;;;;;;;14.45;9.18;;;;;;;15.34;79.09;102084.41;6097291;19;20531;-69
2023/06/16 02:58:25;;;;;;;18.00;10.40;;;;;;;15.29;78.52;102078.41;6099057;19;20038;-68
2023/06/16 03:00:30;;;;;;;12.23;8.18;;;;;;;15.27;78.35;102084.69;6098404;19;20019;-68
2023/06/16 03:02:38;;;;;;;15.75;9.20;;;;;;;15.26;77.85;102083.84;6095943;19;20487;-73
2023/06/16 03:04:46;;;;;;;13.60;8.13;;;;;;;15.28;78.67;102084.66;6099135;19;20007;-75
2023/06/16 03:06:57;;;;;;;14.90;8.63;;;;;;;15.34;78.21;102083.53;6101663;19;20044;-74
2023/06/16 03:09:06;;;;;;;12.95;8.00;;;;;;;15.34;77.91;102084.41;6105587;19;20035;-76
2023/06/16 03:11:10;;;;;;;14.20;8.57;;;;;;;15.39;77.58;102092.16;6106641;19;20010;-71
2023/06/16 03:13:16;;;;;;;13.65;8.57;;;;;;;15.35;77.86;102088.78;6101835;19;20335;-74
2023/06/16 03:15:23;;;;;;;12.38;8.48;;;;;;;15.35;78.06;102090.59;6102248;19;20015;-74
2023/06/16 03:17:28;;;;;;;15.93;8.27;;;;;;;15.35;77.70;102090.59;6103999;19;20016;-74
2023/06/16 03:19:33;;;;;;;12.90;7.20;;;;;;;15.36;77.83;102095.78;6101483;19;20068;-72
2023/06/16 03:21:40;;;;;;;11.27;7.20;;;;;;;15.35;78.06;102090.59;6098790;19;20466;-74
2023/06/16 03:23:46;;;;;;;14.23;7.95;;;;;;;15.35;77.99;102103.81;6086357;19;20039;-74
2023/06/16 03:25:51;;;;;;;12.30;8.15;;;;;;;15.34;77.75;102094.13;6101128;19;20518;-73
2023/06/16 03:27:56;;;;;;;14.57;8.57;;;;;;;15.29;77.41;102099.59;6095174;19;20282;-72
2023/06/16 03:30:01;;;;;;;14.93;7.63;;;;;;;15.29;77.66;102104.06;6097447;19;20011;-73
2023/06/16 03:32:07;;;;;;;12.48;8.07;;;;;;;15.29;77.66;102101.41;6098581;19;20022;-73
2023/06/16 03:34:12;;;;;;;14.32;8.32;;;;;;;15.20;76.71;102099.13;6095441;19;20011;-74
2023/06/16 03:36:32;;;;;;;16.13;8.20;;;;;;;15.18;77.63;102098.31;6097497;19;20574;-74
2023/06/16 03:38:40;;;;;;;11.65;7.68;;;;;;;15.18;78.10;102100.97;6092311;19;20003;-73
2023/06/16 03:40:45;;;;;;;12.13;7.53;;;;;;;15.17;77.89;102096.63;6102169;19;20129;-74
2023/06/16 03:42:50;;;;;;;15.05;7.70;;;;;;;15.15;78.39;102101.97;6104670;19;20059;-74
2023/06/16 03:44:56;;;;;;;17.33;9.15;;;;;;;15.12;78.50;102105.59;6099063;19;20006;-75
2023/06/16 03:47:01;;;;;;;12.10;7.78;;;;;;;15.15;78.38;102105.47;6102599;19;20007;-73
2023/06/16 03:49:07;;;;;;;12.35;7.22;;;;;;;15.17;78.15;102104.56;6102372;19;20543;-73
2023/06/16 03:51:16;;;;;;;14.77;7.72;;;;;;;15.20;78.35;102110.59;6099048;19;20038;-73
2023/06/16 03:53:22;;;;;;;13.25;8.45;;;;;;;15.24;78.50;102106.00;6098875;19;20034;-74
2023/06/16 03:55:33;;;;;;;13.85;7.82;;;;;;;15.26;78.24;102112.97;6098901;19;20006;-74
2023/06/16 03:57:38;;;;;;;13.45;7.72;;;;;;;15.26;78.13;102107.69;6101199;19;20770;-73
2023/06/16 03:59:43;;;;;;;11.93;7.20;;;;;;;15.24;77.79;102112.16;6102140;19;20025;-74
2023/06/16 04:01:51;;;;;;;12.63;8.38;;;;;;;15.21;77.41;102114.94;6103146;19;20010;-73
2023/06/16 04:03:57;;;;;;;13.27;7.70;;;;;;;15.19;77.70;102116.78;6094665;19;20103;-72
2023/06/16 04:06:05;;;;;;;13.27;7.47;;;;;;;15.19;78.27;102108.84;6099490;19;20396;-73
2023/06/16 04:08:10;;;;;;;12.45;7.60;;;;;;;15.19;78.14;102110.63;6101573;19;20002;-73
2023/06/16 04:10:15;;;;;;;13.85;7.38;;;;;;;15.15;78.21;102108.09;6103667;19;20022;-74
2023/06/16 04:12:23;;;;;;;12.18;7.47;;;;;;;15.17;77.98;102113.34;6104844;19;20003;-74
2023/06/16 04:14:29;;;;;;;12.18;6.93;;;;;;;15.17;78.25;102110.72;6102724;19;20024;-73
2023/06/16 04:16:34;;;;;;;11.82;7.53;;;;;;;15.18;78.17;102120.38;6102888;19;20507;-74
2023/06/16 04:18:39;;;;;;;12.52;7.28;;;;;;;15.18;78.55;102109.78;6104283;19;20007;-73
2023/06/16 04:20:44;;;;;;;13.00;7.78;;;;;;;15.21;78.06;102108.78;6103861;19;20074;-69
2023/06/16 04:22:49;;;;;;;12.65;7.70;;;;;;;15.19;78.52;102111.50;6106901;19;20089;-70
2023/06/16 04:24:55;;;;;;;12.27;7.78;;;;;;;15.24;77.97;102120.09;6103883;19;20015;-70
2023/06/16 04:27:02;;;;;;;13.80;8.10;;;;;;;15.27;78.39;102120.03;6105194;19;20007;-69
2023/06/16 04:29:14;;;;;;;14.45;7.57;;;;;;;15.32;78.39;102117.16;6104099;19;20069;-68
2023/06/16 04:31:21;;;;;;;14.50;7.87;;;;;;;15.37;78.56;102120.50;6101279;19;20573;-70
2023/06/16 04:33:26;;;;;;;12.98;7.53;;;;;;;15.41;78.53;102121.25;6101990;19;20842;-69
2023/06/16 04:35:33;;;;;;;11.95;7.22;;;;;;;15.43;77.63;102124.69;6098829;19;20178;-68
2023/06/16 04:37:38;;;;;;;15.10;8.45;;;;;;;15.45;78.20;102121.03;6100311;19;20015;-68
2023/06/16 04:39:43;;;;;;;18.42;8.00;;;;;;;15.50;78.47;102119.06;6099547;19;20006;-68
2023/06/16 04:41:50;;;;;;;15.15;8.05;;;;;;;15.54;78.06;102122.47;6096819;19;20459;-68
2023/06/16 04:43:54;;;;;;;15.68;9.02;;;;;;;15.58;78.24;102118.75;6099154;19;20034;-70
2023/06/16 04:46:05;;;;;;;14.70;8.38;;;;;;;15.68;77.89;102129.84;6098692;19;20082;-69
2023/06/16 04:48:10;;;;;;;15.60;8.77;;;;;;;15.80;77.27;102124.94;6095700;19;20010;-68
2023/06/16 04:50:16;;;;;;;13.45;9.25;;;;;;;15.86;76.51;102120.31;6093362;19;20497;-69
2023/06/16 04:52:21;;;;;;;14.02;8.50;;;;;;;15.93;76.62;102124.41;6096603;19;20090;-67
2023/06/16 04:54:29;;;;;;;13.27;8.00;;;;;;;16.05;76.98;102121.22;6100102;19;20013;-68
2023/06/16 04:56:34;;;;;;;16.45;9.13;;;;;;;16.17;76.13;102125.16;6096420;19;20498;-69
2023/06/16 04:58:39;;;;;;;14.00;9.20;;;;;;;16.29;75.91;102118.44;6099923;19;20470;-70
2023/06/16 05:00:45;;;;;;;16.15;8.75;;;;;;;16.48;75.49;102116.69;6095907;19;20007;-70
2023/06/16 05:02:53;;;;;;;16.10;8.82;;;;;;;16.77;74.60;102119.81;6095377;19;20374;-69
2023/06/16 05:05:03;;;;;;;18.23;9.80;;;;;;;17.04;74.05;102113.25;6097153;19;20021;-68
2023/06/16 05:07:08;;;;;;;15.40;9.52;;;;;;;17.32;72.64;102119.91;6098517;19;20007;-69
2023/06/16 05:09:14;;;;;;;15.90;9.55;;;;;;;17.57;71.25;102108.94;6096852;19;20471;-68
2023/06/16 05:11:19;;;;;;;17.77;9.45;;;;;;;17.84;69.82;102117.34;6096993;19;20010;-74
2023/06/16 05:13:24;;;;;;;17.45;9.90;;;;;;;18.05;68.80;102120.72;6096231;19;20056;-74
2023/06/16 05:15:30;;;;;;;16.98;9.73;;;;;;;18.25;68.51;102119.69;6100514;19;20021;-72
2023/06/16 05:17:36;;;;;;;19.08;9.43;;;;;;;18.56;67.05;102115.38;6099040;19;20006;-73
2023/06/16 05:19:44;;;;;;;16.38;8.68;;;;;;;18.53;67.04;102121.72;6100038;19;20991;-74
2023/06/16 05:21:49;;;;;;;19.20;10.00;;;;;;;18.53;66.05;102121.72;6098089;19;20010;-74
2023/06/16 05:23:55;;;;;;;17.55;9.23;;;;;;;18.81;64.49;102118.47;6099316;19;20370;-73
2023/06/16 05:26:03;;;;;;;20.75;10.63;;;;;;;19.13;64.48;102122.97;6077769;19;20006;-74
2023/06/16 05:28:08;;;;;;;20.10;10.07;;;;;;;19.39;62.53;102117.00;6097646;19;20026;-73
2023/06/16 05:30:14;;;;;;;19.20;9.60;;;;;;;19.73;61.96;102110.59;6097654;19;20010;-75
2023/06/16 05:32:22;;;;;;;19.75;10.63;;;;;;;19.95;60.82;102114.66;6095517;19;20059;-75
2023/06/16 05:34:27;;;;;;;19.17;9.45;;;;;;;20.15;59.71;102118.81;6094609;19;20279;-74
2023/06/16 05:36:35;;;;;;;17.63;10.55;;;;;;;20.31;58.93;102116.91;6097687;19;20006;-74
2023/06/16 05:38:40;;;;;;;17.50;10.63;;;;;;;20.27;58.15;102120.72;6098783;19;20568;-73
2023/06/16 05:40:45;;;;;;;22.08;10.95;;;;;;;20.37;58.70;102118.34;6096723;19;20467;-74
2023/06/16 05:42:51;;;;;;;20.58;11.43;;;;;;;20.68;57.54;102120.00;6096753;19;20481;-74
2023/06/16 05:44:56;;;;;;;18.55;10.50;;;;;;;20.65;56.75;102112.19;6078985;19;20495;-75
2023/06/16 05:47:01;;;;;;;19.92;11.35;;;;;;;20.82;56.46;102111.97;6094922;19;20365;-74
2023/06/16 05:49:06;;;;;;;19.70;9.90;;;;;;;20.77;55.65;102115.88;6095297;19;20010;-75
2023/06/16 05:51:11;;;;;;;20.30;10.95;;;;;;;21.01;55.38;102119.69;6097131;19;20403;-74
2023/06/16 05:53:21;;;;;;;18.73;10.48;;;;;;;21.25;54.19;102124.41;6096699;19;20017;-73
2023/06/16 05:55:29;;;;;;;20.15;10.45;;;;;;;21.31;54.33;102115.13;6098173;19;20353;-71
2023/06/16 05:57:36;;;;;;;26.83;11.63;;;;;;;21.21;54.17;102117.53;6094992;19;20447;-68
2023/06/16 05:59:41;;;;;;;22.88;10.95;;;;;;;21.41;54.08;102118.94;6097516;19;20093;-69
2023/06/16 06:01:46;;;;;;;19.02;10.82;;;;;;;21.65;52.80;102119.13;6095867;19;20006;-70
2023/06/16 06:03:52;;;;;;;23.30;10.77;;;;;;;21.80;52.93;102122.56;6102223;19;20448;-69
2023/06/16 06:05:58;;;;;;;19.95;10.52;;;;;;;21.96;51.90;102131.28;6095714;19;20078;-68
2023/06/16 06:08:02;;;;;;;21.60;11.00;;;;;;;21.99;51.84;102133.75;6098786;19;20030;-69
2023/06/16 06:10:13;;;;;;;21.17;11.15;;;;;;;21.80;52.20;102131.47;6105884;19;20070;-69
2023/06/16 06:12:18;;;;;;;20.05;11.23;;;;;;;22.09;51.64;102142.00;6100418;19;20007;-69
2023/06/16 06:14:23;;;;;;;23.05;11.60;;;;;;;22.20;51.54;102135.97;6100674;19;20459;-68
2023/06/16 06:16:29;;;;;;;20.95;11.00;;;;;;;22.26;51.14;102130.16;6100118;19;20046;-69
2023/06/16 06:18:34;;;;;;;24.17;11.30;;;;;;;22.40;51.07;102134.56;6101569;19;20130;-69
2023/06/16 06:20:41;;;;;;;23.75;11.18;;;;;;;22.67;50.38;102129.06;6100651;19;20011;-69
2023/06/16 06:22:46;;;;;;;21.15;11.32;;;;;;;22.84;49.99;102128.72;6099301;19;20003;-69
2023/06/16 06:24:53;;;;;;;21.23;10.98;;;;;;;22.90;49.54;102127.41;6102386;19;20043;-68
2023/06/16 06:27:01;;;;;;;26.15;11.68;;;;;;;22.95;49.52;102130.63;6104423;19;20010;-70
2023/06/16 06:29:06;;;;;;;20.42;10.57;;;;;;;23.15;48.79;102131.88;6103587;19;20019;-69
2023/06/16 06:31:11;;;;;;;22.27;11.45;;;;;;;23.08;48.65;102126.09;6105096;19;20014;-69
2023/06/16 06:33:16;;;;;;;21.63;10.98;;;;;;;23.36;47.89;102134.81;6101996;19;20522;-69
2023/06/16 06:35:21;;;;;;;24.63;10.60;;;;;;;23.37;47.57;102132.00;6102440;19;20038;-69
2023/06/16 06:37:30;;;;;;;19.85;10.25;;;;;;;23.36;49.09;102137.50;6102824;19;20014;-69
2023/06/16 06:39:35;;;;;;;25.55;12.23;;;;;;;23.49;47.22;102140.13;6099050;19;20703;-70
2023/06/16 06:41:40;;;;;;;18.02;9.05;;;;;;;23.63;47.89;102135.41;6100225;19;20014;-71
2023/06/16 06:43:50;;;;;;;20.00;9.93;;;;;;;23.93;46.68;102135.91;6097993;19;20108;-69
2023/06/16 06:45:55;;;;;;;19.33;10.35;;;;;;;24.38;45.57;102134.19;6097413;19;20003;-69
2023/06/16 06:48:01;;;;;;;20.77;10.75;;;;;;;24.24;44.52;102142.47;6097269;19;20007;-69
2023/06/16 06:50:08;;;;;;;19.40;9.82;;;;;;;23.95;44.62;102148.25;6101151;19;20006;-68
2023/06/16 06:52:13;;;;;;;17.23;9.45;;;;;;;24.07;44.91;102146.47;6096582;19;20029;-69
2023/06/16 06:54:18;;;;;;;19.33;10.18;;;;;;;24.09;44.79;102147.19;6094060;19;20038;-69
2023/06/16 06:56:24;;;;;;;18.60;9.70;;;;;;;24.49;44.93;102141.44;6095186;19;20024;-68
2023/06/16 06:58:30;;;;;;;17.17;9.57;;;;;;;24.61;44.04;102145.81;6096691;19;20011;-68
2023/06/16 07:00:38;;;;;;;17.35;8.68;;;;;;;24.68;43.84;102144.38;6096587;19;20006;-68
2023/06/16 07:02:43;;;;;;;17.17;8.70;;;;;;;24.57;44.23;102144.38;6096534;19;20006;-68
2023/06/16 07:04:49;;;;;;;17.58;9.85;;;;;;;24.91;42.82;102145.22;6097028;19;20025;-69
2023/06/16 07:06:55;;;;;;;19.17;9.32;;;;;;;24.51;43.14;102143.03;6095566;19;20018;-68
2023/06/16 07:09:01;;;;;;;17.80;8.32;;;;;;;24.69;42.84;102150.59;6086829;19;20462;-69
2023/06/16 07:11:06;;;;;;;18.85;9.38;;;;;;;24.98;42.90;102149.09;6094856;19;20104;-69
2023/06/16 07:13:11;;;;;;;18.73;9.40;;;;;;;24.80;42.65;102145.22;6097241;19;20015;-70
2023/06/16 07:15:17;;;;;;;17.83;8.35;;;;;;;25.29;41.59;102146.63;6104832;19;20007;-68
2023/06/16 07:17:25;;;;;;;19.48;9.13;;;;;;;25.12;40.48;102144.44;6096671;19;20018;-70
2023/06/16 07:19:33;;;;;;;17.60;9.55;;;;;;;25.45;40.83;102148.91;6100315;19;20455;-68
2023/06/16 07:21:40;;;;;;;18.00;8.60;;;;;;;25.82;39.76;102143.13;6105212;19;20470;-69
2023/06/16 07:23:47;;;;;;;15.50;8.18;;;;;;;26.23;38.40;102147.72;6100689;19;20050;-70
2023/06/16 07:25:55;;;;;;;15.63;7.68;;;;;;;26.58;38.15;102142.94;6101032;19;20803;-69
2023/06/16 07:28:01;;;;;;;15.02;7.75;;;;;;;26.19;38.46;102143.56;6096185;19;20014;-70
2023/06/16 07:30:08;;;;;;;14.88;8.95;;;;;;;26.11;39.49;102140.66;6095024;19;20011;-68
2023/06/16 07:32:13;;;;;;;15.32;8.07;;;;;;;26.59;38.54;102142.78;6104313;19;20038;-68
2023/06/16 07:34:21;;;;;;;14.73;7.80;;;;;;;26.59;37.26;102142.78;6106414;19;20086;-69
2023/06/16 07:36:26;;;;;;;15.52;7.88;;;;;;;26.24;37.79;102145.84;6101275;19;20594;-68
2023/06/16 07:38:31;;;;;;;14.90;8.23;;;;;;;26.12;37.17;102149.59;6101302;19;20013;-68
2023/06/16 07:40:37;;;;;;;16.90;8.90;;;;;;;26.04;36.66;102145.75;6099633;19;20011;-70
2023/06/16 07:42:42;;;;;;;19.05;8.75;;;;;;;25.85;38.02;102156.38;6099671;19;20042;-67
2023/06/16 07:44:47;;;;;;;14.05;8.45;;;;;;;26.10;37.16;102152.44;6098681;19;20342;-69
2023/06/16 07:46:53;;;;;;;16.15;9.07;;;;;;;26.14;37.89;102150.34;6104950;19;20011;-69
2023/06/16 07:48:58;;;;;;;16.40;8.00;;;;;;;26.49;37.01;102149.97;6105883;19;20042;-68
2023/06/16 07:51:06;;;;;;;14.45;7.63;;;;;;;26.45;36.86;102143.13;6104987;19;20106;-68
2023/06/16 07:53:11;;;;;;;13.10;7.25;;;;;;;26.79;35.87;102145.59;6101098;19;20014;-68
2023/06/16 07:55:16;;;;;;;13.07;7.47;;;;;;;26.68;35.65;102152.78;6103382;19;20092;-68
2023/06/16 07:57:21;;;;;;;15.63;8.20;;;;;;;26.64;36.08;102151.34;6104457;19;20011;-68
2023/06/16 07:59:27;;;;;;;13.30;7.13;;;;;;;26.85;35.36;102156.66;6105260;19;20011;-68
2023/06/16 08:01:32;;;;;;;11.82;7.70;;;;;;;27.07;33.91;102144.81;6101174;19;20475;-69
2023/06/16 08:03:37;;;;;;;13.85;7.43;;;;;;;26.98;34.28;102144.78;6099082;19;20014;-68
2023/06/16 08:05:42;;;;;;;12.90;7.00;;;;;;;27.68;33.50;102145.63;6101002;19;20087;-68
2023/06/16 08:07:50;;;;;;;13.60;6.78;;;;;;;27.83;33.63;102143.34;6101456;19;20014;-67
2023/06/16 08:09:55;;;;;;;14.15;7.43;;;;;;;27.67;32.55;102143.91;6096148;19;20368;-69
2023/06/16 08:12:01;;;;;;;12.00;7.10;;;;;;;27.36;32.71;102146.75;6097547;19;20034;-68
2023/06/16 08:14:06;;;;;;;13.35;6.82;;;;;;;27.62;33.31;102146.19;6095950;19;20439;-68
2023/06/16 08:16:11;;;;;;;12.18;6.93;;;;;;;28.11;31.96;102138.91;6097792;19;20526;-68
2023/06/16 08:18:17;;;;;;;14.30;7.28;;;;;;;27.84;32.05;102151.34;6098200;19;20017;-68
2023/06/16 08:20:23;;;;;;;11.85;6.97;;;;;;;28.09;31.38;102138.22;6103494;19;20041;-67
2023/06/16 08:22:28;;;;;;;11.23;6.35;;;;;;;28.00;31.36;102138.09;6104289;19;20353;-68
2023/06/16 08:24:36;;;;;;;14.25;6.78;;;;;;;28.36;30.75;102135.59;6107580;19;20341;-68
2023/06/16 08:26:41;;;;;;;11.98;6.40;;;;;;;28.71;30.40;102133.19;6105419;19;20388;-68
2023/06/16 08:28:46;;;;;;;11.07;5.90;;;;;;;28.29;30.28;102134.47;6107235;19;20016;-68
2023/06/16 08:30:51;;;;;;;12.93;6.43;;;;;;;28.33;29.07;102141.28;6104890;19;20065;-68
2023/06/16 08:32:56;;;;;;;13.07;6.00;;;;;;;27.97;29.30;102134.81;6105003;19;20034;-68
2023/06/16 08:35:02;;;;;;;10.60;5.95;;;;;;;28.51;29.44;102132.41;6105575;19;20332;-69
2023/06/16 08:37:08;;;;;;;12.05;6.50;;;;;;;28.69;29.38;102141.44;6105561;19;20017;-68
2023/06/16 08:39:35;;;;;;;12.60;5.85;;;;;;;28.48;29.21;102143.53;6104522;19;20007;-68
2023/06/16 08:41:41;;;;;;;13.18;5.85;;;;;;;28.59;29.57;102135.22;6104877;19;20007;-68
2023/06/16 08:43:46;;;;;;;11.25;6.05;;;;;;;28.80;29.59;102133.13;6104477;19;20015;-68
2023/06/16 08:45:53;;;;;;;13.77;6.40;;;;;;;28.41;29.28;102127.88;6107485;19;20442;-69
2023/06/16 08:47:58;;;;;;;11.75;6.10;;;;;;;27.99;29.90;102136.38;6096892;19;20490;-68
2023/06/16 08:50:03;;;;;;;11.23;6.28;;;;;;;27.58;29.61;102127.56;6105349;19;20373;-68
2023/06/16 08:52:11;;;;;;;9.80;5.90;;;;;;;28.06;28.81;102135.81;6098827;19;20017;-69
2023/06/16 08:54:17;;;;;;;12.13;6.00;;;;;;;28.59;28.42;102125.25;6102013;19;20045;-68
2023/06/16 08:56:26;;;;;;;12.15;5.93;;;;;;;28.47;28.77;102126.47;6104705;19;20501;-68
2023/06/16 08:58:32;;;;;;;9.38;5.30;;;;;;;29.24;29.36;102130.63;6104428;19;20028;-68
2023/06/16 09:00:39;;;;;;;8.75;5.43;;;;;;;29.86;26.38;102124.41;6101481;19;20085;-68
2023/06/16 09:02:48;;;;;;;11.20;5.80;;;;;;;29.18;25.74;102130.41;6100424;19;20014;-69
2023/06/16 09:04:56;;;;;;;11.20;5.93;;;;;;;29.02;25.48;102125.63;6104097;19;20006;-68
2023/06/16 09:07:02;;;;;;;10.95;5.85;;;;;;;29.49;25.60;102123.59;6102499;19;20046;-67
2023/06/16 09:09:07;;;;;;;13.43;5.95;;;;;;;29.82;25.82;102128.47;6104338;19;20010;-69
2023/06/16 09:11:15;;;;;;;10.27;5.85;;;;;;;29.60;24.57;102125.22;6101898;19;20026;-68
2023/06/16 09:13:25;;;;;;;10.60;5.70;;;;;;;29.24;25.52;102124.38;6102600;19;20372;-68
2023/06/16 09:15:35;;;;;;;11.02;5.70;;;;;;;29.44;25.84;102125.06;6099569;19;20477;-68
2023/06/16 09:17:41;;;;;;;10.57;5.72;;;;;;;29.50;25.85;102135.28;6104382;19;20010;-68
2023/06/16 09:19:50;;;;;;;11.32;6.13;;;;;;;29.28;26.41;102129.31;6102801;19;20013;-69
2023/06/16 09:21:57;;;;;;;12.35;5.60;;;;;;;29.29;27.12;102127.47;6101088;19;20439;-69
2023/06/16 09:24:03;;;;;;;10.40;5.30;;;;;;;29.65;26.04;102133.75;6102838;19;20027;-68
2023/06/16 09:26:13;;;;;;;10.27;5.38;;;;;;;29.53;25.41;102127.69;6102616;19;20006;-68
2023/06/16 09:28:35;;;;;;;12.93;5.72;;;;;;;29.44;26.06;102125.06;6095268;19;20017;-68
2023/06/16 09:30:40;;;;;;;8.82;5.18;;;;;;;29.77;25.74;102126.22;6100907;19;20080;-68
2023/06/16 09:32:49;;;;;;;10.63;5.53;;;;;;;29.08;26.55;102130.47;6102229;19;20013;-68
2023/06/16 09:34:54;;;;;;;12.07;5.63;;;;;;;29.71;25.20;102122.28;6101538;19;20006;-69
2023/06/16 09:37:01;;;;;;;9.48;5.40;;;;;;;28.86;26.87;102121.72;6100835;19;20018;-68
2023/06/16 09:39:10;;;;;;;11.80;5.28;;;;;;;29.78;27.05;102121.66;6104053;19;20074;-68
2023/06/16 09:41:18;;;;;;;9.70;5.00;;;;;;;29.81;25.18;102115.94;6102839;19;21087;-69